createdAt,value
2023-05-02T00:00:01.132Z,96428.16
2023-05-02T00:02:34.370Z,96423.94
2023-05-02T00:05:07.962Z,96425.38
2023-05-02T00:07:40.641Z,96427.28
2023-05-02T00:10:13.598Z,96421.56
2023-05-02T00:12:47.746Z,96416.09
2023-05-02T00:15:20.500Z,96423.81
2023-05-02T00:17:53.240Z,96419.22
2023-05-02T00:20:26.317Z,96407.72
2023-05-02T00:22:59.339Z,96416.22
2023-05-02T00:25:32.043Z,96408.94
2023-05-02T00:28:06.362Z,96419.31
2023-05-02T00:30:43.564Z,96410.94
2023-05-02T00:33:16.393Z,96406.69
2023-05-02T00:35:49.035Z,96413.28
2023-05-02T00:38:21.802Z,96414.41
2023-05-02T00:40:54.580Z,96408.72
2023-05-02T00:43:33.356Z,96410.72
2023-05-02T00:46:06.517Z,96401.56
2023-05-02T00:48:39.414Z,96400.00
2023-05-02T00:51:13.957Z,96401.56
2023-05-02T00:53:46.825Z,96395.84
2023-05-02T00:56:19.610Z,96394.31
2023-05-02T00:58:54.233Z,96395.75
2023-05-02T01:01:35.213Z,96396.88
2023-05-02T01:04:12.354Z,96398.66
2023-05-02T01:06:54.829Z,96402.47
2023-05-02T01:09:33.540Z,96399.66
2023-05-02T01:12:12.071Z,96400.00
2023-05-02T01:14:48.273Z,96401.91
2023-05-02T01:17:22.093Z,96404.59
2023-05-02T01:19:56.282Z,96405.38
2023-05-02T01:22:30.573Z,96401.91
2023-05-02T01:25:09.987Z,96405.81
2023-05-02T01:27:49.121Z,96408.50
2023-05-02T01:30:24.017Z,96397.78
2023-05-02T01:32:59.404Z,96404.72
2023-05-02T01:35:33.472Z,96407.06
2023-05-02T01:38:07.319Z,96400.91
2023-05-02T01:40:40.518Z,96413.19
2023-05-02T01:43:14.404Z,96408.94
2023-05-02T01:45:49.950Z,96405.50
2023-05-02T01:48:23.283Z,96414.19
2023-05-02T01:50:56.747Z,96416.44
2023-05-02T01:53:30.822Z,96421.38
2023-05-02T01:56:04.873Z,96413.53
2023-05-02T01:58:38.590Z,96421.13
2023-05-02T02:01:13.226Z,96425.28
2023-05-02T02:03:46.655Z,96412.88
2023-05-02T02:06:20.270Z,96426.28
2023-05-02T02:08:53.242Z,96411.31
2023-05-02T02:11:27.783Z,96414.75
2023-05-02T02:14:03.520Z,96416.66
2023-05-02T02:16:39.885Z,96424.72
2023-05-02T02:19:15.565Z,96424.38
2023-05-02T02:21:49.281Z,96432.88
2023-05-02T02:24:24.085Z,96437.56
2023-05-02T02:26:56.845Z,96437.56
2023-05-02T02:29:29.637Z,96438.00
2023-05-02T02:32:03.861Z,96439.56
2023-05-02T02:34:36.707Z,96440.03
2023-05-02T02:37:13.372Z,96448.94
2023-05-02T02:39:52.917Z,96447.03
2023-05-02T02:42:29.436Z,96449.41
2023-05-02T02:45:07.111Z,96443.69
2023-05-02T02:47:45.083Z,96447.63
2023-05-02T02:50:20.822Z,96446.13
2023-05-02T02:52:56.713Z,96451.19
2023-05-02T02:55:37.955Z,96455.09
2023-05-02T02:58:17.945Z,96453.53
2023-05-02T03:00:50.923Z,96453.66
2023-05-02T03:03:29.227Z,96456.31
2023-05-02T03:06:02.763Z,96447.16
2023-05-02T03:08:40.240Z,96464.47
2023-05-02T03:11:12.902Z,96468.38
2023-05-02T03:13:45.817Z,96465.38
2023-05-02T03:16:42.632Z,96476.09
2023-05-02T03:19:16.995Z,96469.63
2023-05-02T03:21:49.788Z,96472.31
2023-05-02T03:24:22.670Z,96476.19
2023-05-02T03:26:56.110Z,96478.09
2023-05-02T03:29:29.184Z,96478.88
2023-05-02T03:32:02.215Z,96473.50
2023-05-02T03:34:36.572Z,96484.25
2023-05-02T03:37:09.395Z,96483.13
2023-05-02T03:39:42.271Z,96470.81
2023-05-02T03:42:15.322Z,96480.78
2023-05-02T03:44:47.983Z,96481.22
2023-05-02T03:47:20.886Z,96486.13
2023-05-02T03:49:55.159Z,96487.72
2023-05-02T03:52:28.882Z,96495.41
2023-05-02T03:55:02.548Z,96502.34
2023-05-02T03:57:35.247Z,96493.53
2023-05-02T04:00:08.687Z,96492.41
2023-05-02T04:02:41.531Z,96497.44
2023-05-02T04:05:15.722Z,96499.34
2023-05-02T04:07:48.880Z,96499.00
2023-05-02T04:10:21.700Z,96497.91
2023-05-02T04:12:54.423Z,96497.91
2023-05-02T04:15:27.104Z,96510.16
2023-05-02T04:18:00.110Z,96505.59
2023-05-02T04:20:34.359Z,96497.91
2023-05-02T04:23:07.058Z,96501.69
2023-05-02T04:25:39.836Z,96505.94
2023-05-02T04:28:12.636Z,96504.38
2023-05-02T04:30:45.429Z,96508.19
2023-05-02T04:33:18.521Z,96507.41
2023-05-02T04:35:53.061Z,96503.94
2023-05-02T04:38:25.882Z,96506.59
2023-05-02T04:40:58.761Z,96503.94
2023-05-02T04:43:31.594Z,96514.66
2023-05-02T04:46:04.576Z,96518.47
2023-05-02T04:48:37.393Z,96511.19
2023-05-02T04:51:11.947Z,96515.78
2023-05-02T04:53:44.737Z,96520.34
2023-05-02T04:56:17.491Z,96521.47
2023-05-02T04:58:50.148Z,96518.34
2023-05-02T05:01:24.295Z,96525.63
2023-05-02T05:03:57.353Z,96535.13
2023-05-02T05:06:32.182Z,96541.16
2023-05-02T05:09:05.203Z,96534.13
2023-05-02T05:11:39.455Z,96540.13
2023-05-02T05:14:12.166Z,96546.53
2023-05-02T05:16:45.034Z,96555.56
2023-05-02T05:19:17.721Z,96568.50
2023-05-02T05:21:51.763Z,96569.19
2023-05-02T05:24:24.513Z,96577.25
2023-05-02T05:26:57.240Z,96583.81
2023-05-02T05:29:32.774Z,96590.88
2023-05-02T05:32:06.235Z,96596.47
2023-05-02T05:34:39.259Z,96602.97
2023-05-02T05:37:13.527Z,96615.19
2023-05-02T05:39:47.590Z,96617.06
2023-05-02T05:42:20.323Z,96623.56
2023-05-02T05:44:52.982Z,96629.59
2023-05-02T05:47:26.319Z,96631.84
2023-05-02T05:49:59.326Z,96633.63
2023-05-02T05:52:33.619Z,96631.94
2023-05-02T05:55:06.899Z,96632.97
2023-05-02T05:57:39.716Z,96629.69
2023-05-02T06:00:13.303Z,96629.16
2023-05-02T06:02:46.439Z,96632.03
2023-05-02T06:05:19.250Z,96632.91
2023-05-02T06:07:53.346Z,96630.41
2023-05-02T06:10:26.221Z,96634.44
2023-05-02T06:12:59.062Z,96638.47
2023-05-02T06:15:34.159Z,96630.94
2023-05-02T06:18:07.220Z,96641.13
2023-05-02T06:20:39.927Z,96639.41
2023-05-02T06:23:14.078Z,96643.06
2023-05-02T06:25:47.175Z,96649.53
2023-05-02T06:28:19.893Z,96644.78
2023-05-02T06:30:57.869Z,96642.69
2023-05-02T06:33:31.048Z,96648.34
2023-05-02T06:36:06.132Z,96644.75
2023-05-02T06:38:40.766Z,96652.16
2023-05-02T06:41:16.533Z,96646.41
2023-05-02T06:43:50.648Z,96642.59
2023-05-02T06:46:23.466Z,96646.41
2023-05-02T06:48:56.357Z,96655.28
2023-05-02T06:51:29.171Z,96648.00
2023-05-02T06:54:03.586Z,96649.13
2023-05-02T06:56:36.316Z,96650.69
2023-05-02T06:59:09.129Z,96656.13
2023-05-02T07:01:42.124Z,96651.97
2023-05-02T07:04:14.882Z,96649.81
2023-05-02T07:06:48.158Z,96660.41
2023-05-02T07:09:22.895Z,96662.25
2023-05-02T07:11:55.634Z,96666.38
2023-05-02T07:14:28.533Z,96666.41
2023-05-02T07:17:01.367Z,96673.69
2023-05-02T07:19:34.121Z,96675.56
2023-05-02T07:22:06.928Z,96667.03
2023-05-02T07:24:42.874Z,96665.44
2023-05-02T07:27:16.511Z,96676.50
2023-05-02T07:29:49.357Z,96670.19
2023-05-02T07:32:22.762Z,96672.72
2023-05-02T07:34:56.361Z,96674.88
2023-05-02T07:37:34.455Z,96673.94
2023-05-02T07:40:09.867Z,96666.41
2023-05-02T07:42:42.857Z,96668.88
2023-05-02T07:45:16.300Z,96667.53
2023-05-02T07:47:49.249Z,96673.13
2023-05-02T07:50:22.617Z,96674.44
2023-05-02T07:52:55.904Z,96676.50
2023-05-02T07:55:31.423Z,96674.34
2023-05-02T07:58:04.133Z,96668.25
2023-05-02T08:00:36.796Z,96680.38
2023-05-02T08:03:09.744Z,96681.28
2023-05-02T08:05:42.613Z,96674.47
2023-05-02T08:08:15.484Z,96675.00
2023-05-02T08:10:51.311Z,96682.91
2023-05-02T08:13:24.014Z,96682.34
2023-05-02T08:15:58.504Z,96683.66
2023-05-02T08:18:31.439Z,96681.91
2023-05-02T08:21:04.236Z,96683.25
2023-05-02T08:23:37.666Z,96691.91
2023-05-02T08:26:12.134Z,96690.91
2023-05-02T08:28:44.815Z,96688.41
2023-05-02T08:31:17.504Z,96692.03
2023-05-02T08:33:50.681Z,96693.72
2023-05-02T08:36:23.536Z,96698.13
2023-05-02T08:38:56.228Z,96694.41
2023-05-02T08:41:31.163Z,96696.84
2023-05-02T08:44:04.123Z,96705.91
2023-05-02T08:46:37.529Z,96700.97
2023-05-02T08:49:11.806Z,96699.84
2023-05-02T08:51:46.421Z,96711.56
2023-05-02T08:54:21.284Z,96710.47
2023-05-02T08:56:55.721Z,96709.38
2023-05-02T08:59:28.376Z,96706.00
2023-05-02T09:02:02.529Z,96715.34
2023-05-02T09:04:35.446Z,96713.47
2023-05-02T09:07:08.707Z,96709.22
2023-05-02T09:09:42.201Z,96710.81
2023-05-02T09:12:16.447Z,96708.09
2023-05-02T09:15:09.366Z,96708.50
2023-05-02T09:17:45.966Z,96706.56
2023-05-02T09:20:18.777Z,96712.03
2023-05-02T09:22:52.238Z,96708.56
2023-05-02T09:25:24.973Z,96709.34
2023-05-02T09:28:01.707Z,96713.63
2023-05-02T09:30:34.542Z,96715.91
2023-05-02T09:33:07.436Z,96709.34
2023-05-02T09:35:54.620Z,96713.59
2023-05-02T09:38:27.286Z,96709.69
2023-05-02T09:41:00.557Z,96712.41
2023-05-02T09:43:34.679Z,96714.75
2023-05-02T09:46:08.127Z,96714.75
2023-05-02T09:48:53.834Z,96710.09
2023-05-02T09:51:26.655Z,96710.88
2023-05-02T09:53:59.339Z,96709.34
2023-05-02T09:56:32.248Z,96710.50
2023-05-02T09:59:15.940Z,96707.81
2023-05-02T10:01:56.086Z,96713.63
2023-05-02T10:04:29.604Z,96720.28
2023-05-02T10:07:03.136Z,96717.16
2023-05-02T10:09:37.015Z,96718.69
2023-05-02T10:12:10.059Z,96725.31
2023-05-02T10:14:47.024Z,96723.38
2023-05-02T10:17:23.263Z,96725.28
2023-05-02T10:19:58.535Z,96724.13
2023-05-02T10:22:32.067Z,96724.06
2023-05-02T10:25:04.991Z,96726.03
2023-05-02T10:27:38.046Z,96717.50
2023-05-02T10:30:14.074Z,96722.13
2023-05-02T10:32:47.574Z,96720.94
2023-05-02T10:35:20.605Z,96721.72
2023-05-02T10:37:53.927Z,96722.88
2023-05-02T10:40:27.133Z,96719.38
2023-05-02T10:42:59.931Z,96704.25
2023-05-02T10:45:35.111Z,96719.03
2023-05-02T10:48:17.638Z,96716.34
2023-05-02T10:50:51.427Z,96721.81
2023-05-02T10:53:34.581Z,96712.88
2023-05-02T10:56:12.259Z,96707.06
2023-05-02T10:58:45.281Z,96711.72
2023-05-02T11:01:39.889Z,96704.72
2023-05-02T11:04:12.860Z,96698.13
2023-05-02T11:07:04.081Z,96704.31
2023-05-02T11:09:36.757Z,96704.31
2023-05-02T11:12:09.554Z,96698.88
2023-05-02T11:14:49.720Z,96693.41
2023-05-02T11:17:25.069Z,96685.25
2023-05-02T11:20:25.832Z,96685.31
2023-05-02T11:23:02.855Z,96688.00
2023-05-02T11:25:43.104Z,96689.59
2023-05-02T11:28:30.795Z,96693.84
2023-05-02T11:31:03.818Z,96688.41
2023-05-02T11:33:37.967Z,96679.84
2023-05-02T11:36:10.781Z,96673.66
2023-05-02T11:38:43.547Z,96687.63
2023-05-02T11:41:16.910Z,96688.00
2023-05-02T11:43:49.713Z,96682.13
2023-05-02T11:46:23.177Z,96680.22
2023-05-02T11:48:57.358Z,96671.25
2023-05-02T11:51:30.163Z,96673.25
2023-05-02T11:54:03.430Z,96684.91
2023-05-02T11:56:36.145Z,96684.53
2023-05-02T11:59:08.975Z,96681.03
2023-05-02T12:01:48.547Z,96679.06
2023-05-02T12:04:24.131Z,96687.19
2023-05-02T12:06:57.341Z,96679.44
2023-05-02T12:09:30.116Z,96698.47
2023-05-02T12:12:03.434Z,96696.09
2023-05-02T12:14:38.074Z,96686.81
2023-05-02T12:17:10.774Z,96689.53
2023-05-02T12:19:45.033Z,96688.03
2023-05-02T12:22:18.159Z,96689.97
2023-05-02T12:24:50.876Z,96689.97
2023-05-02T12:27:23.643Z,96691.53
2023-05-02T12:29:57.467Z,96691.53
2023-05-02T12:32:31.021Z,96696.56
2023-05-02T12:35:05.370Z,96709.03
2023-05-02T12:37:38.099Z,96705.13
2023-05-02T12:40:16.662Z,96712.03
2023-05-02T12:43:04.434Z,96719.72
2023-05-02T12:45:37.592Z,96728.41
2023-05-02T12:48:20.140Z,96723.50
2023-05-02T12:50:55.095Z,96718.50
2023-05-02T12:53:41.073Z,96718.09
2023-05-02T12:56:13.911Z,96705.31
2023-05-02T12:58:47.784Z,96707.69
2023-05-02T13:01:20.716Z,96709.66
2023-05-02T13:03:53.481Z,96715.94
2023-05-02T13:06:27.802Z,96709.16
2023-05-02T13:09:00.578Z,96715.91
2023-05-02T13:11:33.784Z,96711.53
2023-05-02T13:14:06.468Z,96708.34
2023-05-02T13:16:39.398Z,96712.91
2023-05-02T13:19:12.145Z,96702.09
2023-05-02T13:21:46.276Z,96707.59
2023-05-02T13:24:18.957Z,96705.03
2023-05-02T13:26:51.815Z,96703.38
2023-05-02T13:29:24.603Z,96692.41
2023-05-02T13:31:57.282Z,96702.03
2023-05-02T13:34:30.109Z,96697.31
2023-05-02T13:37:04.549Z,96699.25
2023-05-02T13:39:37.245Z,96699.91
2023-05-02T13:42:10.274Z,96688.94
2023-05-02T13:44:42.976Z,96693.03
2023-05-02T13:47:15.627Z,96692.81
2023-05-02T13:49:48.371Z,96684.41
2023-05-02T13:52:22.479Z,96700.03
2023-05-02T13:54:55.125Z,96685.38
2023-05-02T13:57:27.853Z,96681.56
2023-05-02T14:00:00.852Z,96682.03
2023-05-02T14:02:33.875Z,96681.69
2023-05-02T14:05:07.188Z,96687.13
2023-05-02T14:07:41.254Z,96683.66
2023-05-02T14:10:14.057Z,96679.03
2023-05-02T14:12:46.741Z,96679.03
2023-05-02T14:15:19.565Z,96671.66
2023-05-02T14:17:52.384Z,96675.16
2023-05-02T14:20:25.210Z,96672.88
2023-05-02T14:22:59.525Z,96663.94
2023-05-02T14:25:32.254Z,96668.59
2023-05-02T14:28:05.733Z,96666.66
2023-05-02T14:30:38.424Z,96669.78
2023-05-02T14:33:11.319Z,96668.97
2023-05-02T14:35:44.359Z,96670.13
2023-05-02T14:38:18.468Z,96666.25
2023-05-02T14:40:51.457Z,96660.81
2023-05-02T14:43:24.304Z,96661.22
2023-05-02T14:45:57.260Z,96663.94
2023-05-02T14:48:30.090Z,96667.06
2023-05-02T14:51:04.586Z,96660.44
2023-05-02T14:53:39.353Z,96657.72
2023-05-02T14:56:17.225Z,96653.47
2023-05-02T14:58:50.160Z,96648.34
2023-05-02T15:01:23.479Z,96655.72
2023-05-02T15:04:06.745Z,96650.25
2023-05-02T15:06:40.327Z,96655.66
2023-05-02T15:09:14.723Z,96657.97
2023-05-02T15:11:47.350Z,96659.44
2023-05-02T15:14:20.289Z,96659.38
2023-05-02T15:16:52.997Z,96663.59
2023-05-02T15:19:26.171Z,96668.22
2023-05-02T15:21:58.804Z,96666.63
2023-05-02T15:24:33.074Z,96676.25
2023-05-02T15:27:06.100Z,96675.44
2023-05-02T15:29:39.293Z,96674.22
2023-05-02T15:32:12.069Z,96676.88
2023-05-02T15:34:44.985Z,96681.44
2023-05-02T15:37:17.691Z,96684.13
2023-05-02T15:39:51.970Z,96679.38
2023-05-02T15:42:24.636Z,96682.06
2023-05-02T15:44:57.647Z,96672.72
2023-05-02T15:47:30.678Z,96676.13
2023-05-02T15:50:04.068Z,96680.75
2023-05-02T15:52:37.035Z,96678.78
2023-05-02T15:55:12.451Z,96682.25
2023-05-02T15:57:45.167Z,96681.84
2023-05-02T16:00:18.524Z,96686.13
2023-05-02T16:02:51.301Z,96689.19
2023-05-02T16:05:24.092Z,96698.13
2023-05-02T16:07:56.779Z,96694.25
2023-05-02T16:10:30.990Z,96689.63
2023-05-02T16:13:03.765Z,96689.25
2023-05-02T16:15:36.623Z,96691.53
2023-05-02T16:18:09.368Z,96688.06
2023-05-02T16:20:42.228Z,96691.13
2023-05-02T16:23:14.903Z,96692.31
2023-05-02T16:25:49.317Z,96693.03
2023-05-02T16:28:22.024Z,96697.28
2023-05-02T16:30:55.088Z,96701.91
2023-05-02T16:33:27.889Z,96694.53
2023-05-02T16:36:03.839Z,96706.16
2023-05-02T16:38:37.442Z,96705.38
2023-05-02T16:41:12.145Z,96708.88
2023-05-02T16:43:44.808Z,96703.06
2023-05-02T16:46:18.290Z,96711.22
2023-05-02T16:48:51.027Z,96714.34
2023-05-02T16:51:23.987Z,96713.22
2023-05-02T16:53:56.710Z,96710.09
2023-05-02T16:56:31.243Z,96720.94
2023-05-02T16:59:04.094Z,96717.44
2023-05-02T17:01:36.978Z,96723.66
2023-05-02T17:04:09.877Z,96724.06
2023-05-02T17:06:42.714Z,96726.34
2023-05-02T17:09:15.855Z,96728.63
2023-05-02T17:11:50.324Z,96727.44
2023-05-02T17:14:23.668Z,96732.47
2023-05-02T17:16:56.468Z,96735.91
2023-05-02T17:19:29.617Z,96744.78
2023-05-02T17:22:04.444Z,96750.97
2023-05-02T17:24:37.363Z,96744.72
2023-05-02T17:27:12.440Z,96762.88
2023-05-02T17:29:45.236Z,96770.88
2023-05-02T17:32:18.033Z,96777.38
2023-05-02T17:34:50.853Z,96782.72
2023-05-02T17:37:23.562Z,96788.38
2023-05-02T17:39:56.280Z,96790.13
2023-05-02T17:42:30.476Z,96790.22
2023-05-02T17:45:04.431Z,96797.63
2023-05-02T17:47:37.212Z,96793.59
2023-05-02T17:50:10.512Z,96800.78
2023-05-02T17:52:43.605Z,96801.38
2023-05-02T17:55:18.860Z,96798.47
2023-05-02T17:57:53.559Z,96797.53
2023-05-02T18:00:26.815Z,96795.84
2023-05-02T18:03:02.191Z,96791.97
2023-05-02T18:05:38.678Z,96797.41
2023-05-02T18:08:11.480Z,96795.47
2023-05-02T18:10:44.491Z,96789.38
2023-05-02T18:13:18.718Z,96794.94
2023-05-02T18:15:56.309Z,96788.94
2023-05-02T18:18:29.181Z,96793.03
2023-05-02T18:21:02.600Z,96782.81
2023-05-02T18:23:35.441Z,96796.56
2023-05-02T18:26:13.092Z,96807.69
2023-05-02T18:28:53.575Z,96813.66
2023-05-02T18:31:26.506Z,96818.28
2023-05-02T18:33:59.433Z,96820.44
2023-05-02T18:36:32.284Z,96836.16
2023-05-02T18:39:05.078Z,96829.44
2023-05-02T18:41:39.531Z,96828.91
2023-05-02T18:44:14.356Z,96835.66
2023-05-02T18:46:47.693Z,96843.22
2023-05-02T18:49:20.944Z,96834.91
2023-05-02T18:51:54.597Z,96845.13
2023-05-02T18:54:28.247Z,96850.78
2023-05-02T18:57:02.231Z,96842.88
2023-05-02T18:59:36.561Z,96847.72
2023-05-02T19:02:10.327Z,96852.22
2023-05-02T19:04:49.571Z,96852.47
2023-05-02T19:07:22.575Z,96858.16
2023-05-02T19:09:55.517Z,96860.06
2023-05-02T19:12:28.411Z,96863.88
2023-05-02T19:15:02.978Z,96863.09
2023-05-02T19:17:36.169Z,96861.97
2023-05-02T19:20:10.820Z,96856.94
2023-05-02T19:22:43.926Z,96854.69
2023-05-02T19:25:16.665Z,96858.16
2023-05-02T19:27:49.983Z,96860.97
2023-05-02T19:30:24.418Z,96858.28
2023-05-02T19:32:57.231Z,96872.16
2023-05-02T19:35:34.003Z,96899.53
2023-05-02T19:38:06.761Z,96897.63
2023-05-02T19:40:39.692Z,96912.19
2023-05-02T19:43:12.379Z,96917.56
2023-05-02T19:45:46.666Z,96915.91
2023-05-02T19:48:19.561Z,96918.03
2023-05-02T19:50:52.318Z,96921.41
2023-05-02T19:53:25.040Z,96922.72
2023-05-02T19:55:58.750Z,96923.41
2023-05-02T19:58:32.003Z,96934.06
2023-05-02T20:01:06.282Z,96930.16
2023-05-02T20:03:39.181Z,96929.38
2023-05-02T20:06:12.565Z,96931.59
2023-05-02T20:08:45.458Z,96930.03
2023-05-02T20:11:18.238Z,96929.56
2023-05-02T20:13:51.053Z,96936.41
2023-05-02T20:16:25.692Z,96933.28
2023-05-02T20:18:58.752Z,96931.25
2023-05-02T20:21:31.479Z,96923.50
2023-05-02T20:24:04.411Z,96935.38
2023-05-02T20:26:37.488Z,96939.56
2023-05-02T20:29:10.665Z,96937.53
2023-05-02T20:31:44.952Z,96940.88
2023-05-02T20:34:18.179Z,96939.19
2023-05-02T20:36:51.250Z,96945.22
2023-05-02T20:39:24.844Z,96940.53
2023-05-02T20:41:58.316Z,96932.34
2023-05-02T20:44:33.833Z,96938.38
2023-05-02T20:47:08.041Z,96935.13
2023-05-02T20:49:40.808Z,96935.34
2023-05-02T20:52:14.169Z,96935.88
2023-05-02T20:54:47.792Z,96937.66
2023-05-02T20:57:20.747Z,96917.50
2023-05-02T20:59:53.567Z,96920.06
2023-05-02T21:02:28.209Z,96910.25
2023-05-02T21:05:01.045Z,96913.28
2023-05-02T21:07:33.709Z,96906.69
2023-05-02T21:10:07.258Z,96909.03
2023-05-02T21:12:40.063Z,96903.66
2023-05-02T21:15:14.426Z,96899.09
2023-05-02T21:17:48.718Z,96905.25
2023-05-02T21:20:21.544Z,96899.19
2023-05-02T21:22:54.423Z,96895.41
2023-05-02T21:25:27.223Z,96896.66
2023-05-02T21:28:00.199Z,96888.28
2023-05-02T21:30:33.071Z,96884.13
2023-05-02T21:33:07.308Z,96883.00
2023-05-02T21:35:40.139Z,96874.94
2023-05-02T21:38:13.020Z,96877.63
2023-05-02T21:40:45.808Z,96875.72
2023-05-02T21:43:18.597Z,96882.69
2023-05-02T21:45:51.275Z,96872.25
2023-05-02T21:48:25.853Z,96873.38
2023-05-02T21:50:58.650Z,96874.94
2023-05-02T21:53:31.308Z,96871.03
2023-05-02T21:56:04.228Z,96871.69
2023-05-02T21:58:37.478Z,96873.78
2023-05-02T22:01:10.347Z,96871.75
2023-05-02T22:03:44.735Z,96877.34
2023-05-02T22:06:17.627Z,96870.13
2023-05-02T22:08:50.471Z,96869.56
2023-05-02T22:11:24.342Z,96869.97
2023-05-02T22:13:57.191Z,96869.41
2023-05-02T22:16:30.083Z,96874.84
2023-05-02T22:19:04.374Z,96873.34
2023-05-02T22:21:37.185Z,96873.41
2023-05-02T22:24:10.494Z,96876.16
2023-05-02T22:26:43.609Z,96886.19
2023-05-02T22:29:16.700Z,96882.78
2023-05-02T22:31:50.027Z,96888.97
2023-05-02T22:34:24.346Z,96890.59
2023-05-02T22:36:57.353Z,96886.88
2023-05-02T22:39:30.673Z,96888.16
2023-05-02T22:42:03.795Z,96886.25
2023-05-02T22:44:50.580Z,96886.78
2023-05-02T22:47:26.905Z,96889.97
2023-05-02T22:50:01.680Z,96885.44
2023-05-02T22:52:37.919Z,96897.44
2023-05-02T22:55:10.943Z,96895.25
2023-05-02T22:57:44.400Z,96886.59
2023-05-02T23:00:17.268Z,96892.00
2023-05-02T23:02:50.293Z,96898.31
2023-05-02T23:09:21.582Z,96898.38
2023-05-02T23:15:41.667Z,96893.81
2023-05-02T23:18:14.446Z,96888.94
2023-05-02T23:20:52.896Z,96895.75
2023-05-02T23:23:26.514Z,96894.31
2023-05-02T23:26:01.152Z,96907.56
2023-05-02T23:28:36.234Z,96905.03
2023-05-02T23:31:09.182Z,96900.31
2023-05-02T23:33:42.547Z,96897.78
2023-05-02T23:36:15.726Z,96892.91
2023-05-02T23:38:48.722Z,96880.47
2023-05-02T23:41:23.478Z,96890.22
2023-05-02T23:43:56.522Z,96885.78
2023-05-02T23:46:29.533Z,96891.00
2023-05-02T23:49:02.544Z,96879.34
2023-05-02T23:51:44.769Z,96878.72
2023-05-02T23:54:18.395Z,96879.66
2023-05-02T23:56:54.572Z,96879.03
2023-05-02T23:59:27.433Z,96871.97
